createdAt,value
2022-08-01T00:00:21.147Z,2.47
2022-08-01T00:01:54.414Z,3.00
2022-08-01T00:03:28.119Z,8.57
2022-08-01T00:05:02.602Z,3.85
2022-08-01T00:06:35.874Z,4.13
2022-08-01T00:08:09.140Z,7.78
2022-08-01T00:09:42.755Z,4.20
2022-08-01T00:11:15.326Z,3.78
2022-08-01T00:12:50.031Z,7.68
2022-08-01T00:14:23.301Z,4.43
2022-08-01T00:16:06.425Z,3.10
2022-08-01T00:17:39.777Z,24.38
2022-08-01T00:19:13.131Z,26.70
2022-08-01T00:20:46.442Z,126.47
2022-08-01T00:22:20.232Z,162.73
2022-08-01T00:23:53.536Z,46.25
2022-08-01T00:25:34.336Z,30.75
2022-08-01T00:27:08.054Z,9.80
2022-08-01T00:28:43.072Z,8.30
2022-08-01T00:30:16.332Z,6.63
2022-08-01T00:31:49.611Z,8.60
2022-08-01T00:33:21.875Z,5.45
2022-08-01T00:34:55.611Z,8.20
2022-08-01T00:36:28.828Z,5.00
2022-08-01T00:38:02.210Z,5.07
2022-08-01T00:39:35.490Z,4.82
2022-08-01T00:41:09.326Z,6.07
2022-08-01T00:42:43.913Z,6.95
2022-08-01T00:44:18.889Z,5.20
2022-08-01T00:45:51.167Z,6.65
2022-08-01T00:47:24.698Z,4.63
2022-08-01T00:48:59.075Z,4.45
2022-08-01T00:50:32.498Z,7.10
2022-08-01T00:52:08.528Z,4.00
2022-08-01T00:53:51.580Z,7.53
2022-08-01T00:55:26.332Z,6.65
2022-08-01T00:57:00.397Z,4.28
2022-08-01T00:58:34.621Z,5.25
2022-08-01T01:00:10.795Z,5.05
2022-08-01T01:01:46.619Z,4.47
2022-08-01T01:03:19.294Z,4.97
2022-08-01T01:04:52.647Z,6.65
2022-08-01T01:06:40.947Z,7.35
2022-08-01T01:08:20.717Z,5.18
2022-08-01T01:10:01.335Z,5.57
2022-08-01T01:11:44.748Z,4.53
2022-08-01T01:13:23.327Z,8.20
2022-08-01T01:15:03.912Z,5.03
2022-08-01T01:16:42.255Z,5.85
2022-08-01T01:18:19.702Z,6.40
2022-08-01T01:19:58.022Z,6.55
2022-08-01T01:22:09.525Z,4.85
2022-08-01T01:23:52.623Z,5.90
2022-08-01T01:25:42.135Z,5.88
2022-08-01T01:27:26.718Z,3.47
2022-08-01T01:29:06.907Z,5.47
2022-08-01T01:30:43.605Z,4.38
2022-08-01T01:32:22.046Z,5.00
2022-08-01T01:34:06.523Z,5.28
2022-08-01T01:35:44.342Z,6.35
2022-08-01T01:37:22.496Z,6.47
2022-08-01T01:38:57.333Z,4.32
2022-08-01T01:40:32.480Z,6.57
2022-08-01T01:42:07.403Z,5.68
2022-08-01T01:43:42.337Z,5.40
2022-08-01T01:45:18.261Z,14.18
2022-08-01T01:46:53.708Z,6.93
2022-08-01T01:48:29.194Z,7.97
2022-08-01T01:50:03.548Z,6.45
2022-08-01T01:51:36.932Z,5.82
2022-08-01T01:53:15.053Z,3.63
2022-08-01T01:54:52.882Z,4.53
2022-08-01T01:56:28.157Z,5.45
2022-08-01T01:58:02.622Z,5.72
2022-08-01T01:59:38.613Z,3.00
2022-08-01T02:01:15.021Z,3.67
2022-08-01T02:02:48.880Z,6.35
2022-08-01T02:04:23.206Z,3.00
2022-08-01T02:05:59.257Z,3.83
2022-08-01T02:07:34.904Z,4.80
2022-08-01T02:09:12.584Z,3.85
2022-08-01T02:11:08.226Z,3.58
2022-08-01T02:12:46.707Z,3.75
2022-08-01T02:14:22.462Z,4.90
2022-08-01T02:15:59.196Z,4.72
2022-08-01T02:17:34.888Z,2.55
2022-08-01T02:19:08.580Z,5.40
2022-08-01T02:20:41.976Z,2.92
2022-08-01T02:22:21.186Z,2.88
2022-08-01T02:23:59.821Z,2.17
2022-08-01T02:26:08.516Z,2.08
2022-08-01T02:27:42.527Z,3.13
2022-08-01T02:29:21.630Z,3.05
2022-08-01T02:30:58.873Z,2.65
2022-08-01T02:32:38.747Z,4.43
2022-08-01T02:34:15.439Z,4.43
2022-08-01T02:36:30.275Z,2.75
2022-08-01T02:37:48.764Z,3.25
2022-08-01T02:39:24.876Z,5.18
2022-08-01T02:41:02.094Z,4.50
2022-08-01T02:42:38.939Z,3.90
2022-08-01T02:44:19.176Z,7.60
2022-08-01T02:45:55.368Z,2.35
2022-08-01T02:47:31.365Z,3.10
2022-08-01T02:49:09.879Z,6.72
2022-08-01T02:50:47.303Z,4.03
2022-08-01T02:52:23.245Z,3.45
2022-08-01T02:53:58.425Z,2.95
2022-08-01T02:55:34.691Z,5.18
2022-08-01T02:57:13.927Z,4.20
2022-08-01T02:58:48.198Z,4.75
2022-08-01T03:00:24.640Z,3.38
2022-08-01T03:01:59.154Z,4.20
2022-08-01T03:03:35.228Z,4.32
2022-08-01T03:05:11.528Z,7.90
2022-08-01T03:06:45.344Z,5.10
2022-08-01T03:08:21.015Z,4.38
2022-08-01T03:09:55.032Z,3.58
2022-08-01T03:11:30.255Z,3.30
2022-08-01T03:13:05.247Z,5.45
2022-08-01T03:14:41.956Z,3.47
2022-08-01T03:16:17.367Z,7.68
2022-08-01T03:17:53.462Z,3.78
2022-08-01T03:19:29.724Z,4.47
2022-08-01T03:21:04.494Z,5.72
2022-08-01T03:22:40.538Z,8.45
2022-08-01T03:24:15.932Z,2.95
2022-08-01T03:25:57.190Z,6.40
2022-08-01T03:27:31.585Z,6.38
2022-08-01T03:29:08.477Z,3.95
2022-08-01T03:30:43.110Z,4.68
2022-08-01T03:32:17.412Z,4.28
2022-08-01T03:33:50.967Z,5.72
2022-08-01T03:35:25.728Z,4.97
2022-08-01T03:37:05.886Z,5.88
2022-08-01T03:38:41.579Z,4.95
2022-08-01T03:40:19.813Z,5.35
2022-08-01T03:42:00.513Z,8.40
2022-08-01T03:43:42.682Z,6.30
2022-08-01T03:45:28.446Z,9.95
2022-08-01T03:47:04.696Z,5.38
2022-08-01T03:48:41.663Z,6.53
2022-08-01T03:50:16.470Z,3.75
2022-08-01T03:51:51.873Z,5.45
2022-08-01T03:53:31.338Z,3.47
2022-08-01T03:55:09.279Z,5.95
2022-08-01T03:56:45.514Z,3.22
2022-08-01T03:58:19.584Z,7.35
2022-08-01T03:59:53.768Z,6.78
2022-08-01T04:01:28.209Z,5.90
2022-08-01T04:03:02.287Z,4.93
2022-08-01T04:04:35.995Z,14.32
2022-08-01T04:06:11.686Z,9.45
2022-08-01T04:07:48.749Z,4.57
2022-08-01T04:09:23.961Z,13.27
2022-08-01T04:10:57.315Z,14.52
2022-08-01T04:12:30.759Z,3.83
2022-08-01T04:14:04.516Z,6.00
2022-08-01T04:15:42.515Z,7.45
2022-08-01T04:17:16.008Z,4.00
2022-08-01T04:18:49.493Z,4.38
2022-08-01T04:20:23.311Z,8.63
2022-08-01T04:21:57.365Z,5.82
2022-08-01T04:23:34.004Z,8.82
2022-08-01T04:25:13.435Z,6.20
2022-08-01T04:26:49.830Z,5.50
2022-08-01T04:28:25.235Z,7.53
2022-08-01T04:30:01.048Z,9.40
2022-08-01T04:31:36.673Z,9.43
2022-08-01T04:33:11.937Z,11.77
2022-08-01T04:34:48.393Z,12.27
2022-08-01T04:36:24.949Z,7.90
2022-08-01T04:37:59.398Z,8.90
2022-08-01T04:39:50.446Z,5.88
2022-08-01T04:41:27.003Z,7.65
2022-08-01T04:43:00.513Z,3.83
2022-08-01T04:44:34.568Z,6.65
2022-08-01T04:46:08.866Z,3.65
2022-08-01T04:47:43.464Z,11.75
2022-08-01T04:49:17.584Z,6.90
2022-08-01T04:50:52.491Z,4.50
2022-08-01T04:52:34.479Z,10.25
2022-08-01T04:54:08.461Z,7.85
2022-08-01T04:55:41.747Z,3.15
2022-08-01T04:57:16.924Z,2.28
2022-08-01T04:59:15.567Z,3.10
2022-08-01T05:00:53.427Z,2.70
2022-08-01T05:02:29.289Z,5.13
2022-08-01T05:04:02.600Z,5.13
2022-08-01T05:05:36.556Z,2.55
2022-08-01T05:07:10.525Z,3.08
2022-08-01T05:08:43.957Z,1.25
2022-08-01T05:10:17.299Z,3.10
2022-08-01T05:11:50.891Z,3.83
2022-08-01T05:13:25.656Z,2.33
2022-08-01T05:14:59.198Z,2.85
2022-08-01T05:16:32.474Z,2.35
2022-08-01T05:18:07.748Z,1.60
2022-08-01T05:19:44.011Z,1.40
2022-08-01T05:21:17.796Z,3.42
2022-08-01T05:22:51.097Z,3.00
2022-08-01T05:24:24.560Z,4.07
2022-08-01T05:25:59.339Z,2.55
2022-08-01T05:27:32.863Z,1.90
2022-08-01T05:29:08.604Z,5.60
2022-08-01T05:30:42.342Z,3.50
2022-08-01T05:32:15.757Z,2.47
2022-08-01T05:33:49.237Z,1.80
2022-08-01T05:35:22.484Z,1.10
2022-08-01T05:36:57.844Z,1.90
2022-08-01T05:38:31.287Z,3.20
2022-08-01T05:40:05.557Z,1.35
2022-08-01T05:41:39.858Z,2.70
2022-08-01T05:43:13.138Z,2.95
2022-08-01T05:44:48.620Z,2.50
2022-08-01T05:46:22.163Z,3.00
2022-08-01T05:47:59.384Z,1.30
2022-08-01T05:49:32.873Z,5.03
2022-08-01T05:51:06.412Z,2.22
2022-08-01T05:52:40.244Z,4.30
2022-08-01T05:54:13.509Z,1.65
2022-08-01T05:55:46.910Z,2.53
2022-08-01T05:57:20.642Z,3.20
2022-08-01T05:58:54.453Z,4.55
2022-08-01T06:00:29.264Z,1.75
2022-08-01T06:02:02.767Z,6.90
2022-08-01T06:03:36.175Z,2.35
2022-08-01T06:05:13.024Z,1.73
2022-08-01T06:06:46.827Z,1.65
2022-08-01T06:08:20.536Z,5.10
2022-08-01T06:09:53.795Z,8.52
2022-08-01T06:11:27.028Z,3.50
2022-08-01T06:13:04.100Z,4.38
2022-08-01T06:14:37.462Z,3.30
2022-08-01T06:16:12.141Z,3.85
2022-08-01T06:17:45.686Z,6.20
2022-08-01T06:19:18.892Z,2.42
2022-08-01T06:20:52.740Z,3.40
2022-08-01T06:22:25.982Z,4.55
2022-08-01T06:23:59.318Z,1.10
2022-08-01T06:25:32.882Z,1.30
2022-08-01T06:27:22.192Z,1.90
2022-08-01T06:28:56.048Z,4.55
2022-08-01T06:30:29.652Z,1.63
2022-08-01T06:32:04.644Z,3.13
2022-08-01T06:33:38.514Z,4.25
2022-08-01T06:35:11.754Z,3.70
2022-08-01T06:36:44.959Z,1.70
2022-08-01T06:38:18.325Z,2.03
2022-08-01T06:39:52.271Z,3.97
2022-08-01T06:41:25.715Z,3.25
2022-08-01T06:42:59.099Z,0.82
2022-08-01T06:44:32.343Z,5.15
2022-08-01T06:46:06.798Z,5.55
2022-08-01T06:47:42.879Z,5.65
2022-08-01T06:49:16.172Z,2.20
2022-08-01T06:50:49.402Z,1.00
2022-08-01T06:52:23.149Z,2.22
2022-08-01T06:53:56.845Z,1.92
2022-08-01T06:55:30.136Z,1.77
2022-08-01T06:57:06.637Z,2.70
2022-08-01T06:58:40.382Z,5.82
2022-08-01T07:00:14.884Z,9.30
2022-08-01T07:01:48.200Z,1.45
2022-08-01T07:03:22.903Z,7.25
2022-08-01T07:04:56.361Z,5.13
2022-08-01T07:06:29.827Z,14.32
2022-08-01T07:08:03.125Z,3.00
2022-08-01T07:09:36.709Z,2.58
2022-08-01T07:11:10.254Z,8.20
2022-08-01T07:12:43.736Z,5.93
2022-08-01T07:14:17.017Z,1.95
2022-08-01T07:15:50.371Z,3.40
2022-08-01T07:17:23.611Z,2.10
2022-08-01T07:18:58.323Z,4.20
2022-08-01T07:20:36.235Z,1.00
2022-08-01T07:22:11.330Z,3.72
2022-08-01T07:23:45.962Z,1.67
2022-08-01T07:25:19.584Z,3.00
2022-08-01T07:26:55.127Z,2.42
2022-08-01T07:28:28.783Z,1.35
2022-08-01T07:30:02.144Z,4.47
2022-08-01T07:31:35.545Z,2.65
2022-08-01T07:33:09.844Z,2.65
2022-08-01T07:34:44.448Z,2.35
2022-08-01T07:36:17.866Z,2.88
2022-08-01T07:37:51.315Z,1.35
2022-08-01T07:39:24.773Z,3.67
2022-08-01T07:40:58.194Z,5.60
2022-08-01T07:42:31.505Z,2.25
2022-08-01T07:44:05.719Z,1.75
2022-08-01T07:45:39.025Z,2.35
2022-08-01T07:47:26.432Z,4.88
2022-08-01T07:48:59.813Z,2.28
2022-08-01T07:50:35.126Z,1.52
2022-08-01T07:52:08.655Z,1.33
2022-08-01T07:53:42.044Z,4.05
2022-08-01T07:55:16.163Z,10.95
2022-08-01T07:56:50.295Z,3.03
2022-08-01T07:58:23.849Z,2.22
2022-08-01T07:59:57.633Z,2.58
2022-08-01T08:01:31.427Z,2.88
2022-08-01T08:03:04.925Z,1.20
2022-08-01T08:04:37.277Z,1.70
2022-08-01T08:06:11.885Z,1.13
2022-08-01T08:07:45.242Z,4.43
2022-08-01T08:09:19.425Z,5.78
2022-08-01T08:10:52.771Z,1.60
2022-08-01T08:12:28.724Z,3.80
2022-08-01T08:14:03.417Z,1.40
2022-08-01T08:15:36.706Z,1.27
2022-08-01T08:17:10.072Z,1.35
2022-08-01T08:18:43.694Z,1.20
2022-08-01T08:20:18.098Z,3.40
2022-08-01T08:21:52.724Z,3.70
2022-08-01T08:23:51.736Z,5.35
2022-08-01T08:25:26.800Z,1.13
2022-08-01T08:27:01.919Z,3.65
2022-08-01T08:28:35.336Z,5.05
2022-08-01T08:30:09.602Z,2.53
2022-08-01T08:31:51.699Z,6.18
2022-08-01T08:33:25.843Z,2.50
2022-08-01T08:34:59.146Z,3.97
2022-08-01T08:36:32.414Z,2.05
2022-08-01T08:38:07.250Z,1.95
2022-08-01T08:39:41.994Z,2.17
2022-08-01T08:41:20.981Z,0.77
2022-08-01T08:42:55.386Z,3.25
2022-08-01T08:44:28.881Z,0.80
2022-08-01T08:46:03.394Z,1.45
2022-08-01T08:47:37.663Z,1.98
2022-08-01T08:49:12.392Z,3.60
2022-08-01T08:50:47.925Z,2.60
2022-08-01T08:52:22.783Z,2.78
2022-08-01T08:53:58.689Z,3.20
2022-08-01T08:55:32.186Z,0.80
2022-08-01T08:57:06.632Z,2.65
2022-08-01T08:58:40.419Z,3.42
2022-08-01T09:00:15.397Z,4.35
2022-08-01T09:01:49.524Z,0.93
2022-08-01T09:03:23.626Z,3.88
2022-08-01T09:04:57.132Z,2.60
2022-08-01T09:06:30.862Z,1.15
2022-08-01T09:08:04.211Z,0.95
2022-08-01T09:09:41.921Z,4.60
2022-08-01T09:11:22.481Z,2.17
2022-08-01T09:13:12.295Z,3.05
2022-08-01T09:14:51.425Z,2.28
2022-08-01T09:16:25.423Z,2.22
2022-08-01T09:17:58.627Z,1.40
2022-08-01T09:19:40.300Z,3.83
2022-08-01T09:21:17.607Z,2.15
2022-08-01T09:22:50.861Z,1.65
2022-08-01T09:24:28.426Z,4.78
2022-08-01T09:26:05.459Z,2.10
2022-08-01T09:27:44.229Z,1.08
2022-08-01T09:29:34.670Z,1.38
2022-08-01T09:31:12.990Z,3.47
2022-08-01T09:32:57.102Z,1.63
2022-08-01T09:34:34.142Z,2.25
2022-08-01T09:36:08.411Z,1.00
2022-08-01T09:37:47.464Z,2.55
2022-08-01T09:39:23.400Z,2.40
2022-08-01T09:40:58.991Z,1.80
2022-08-01T09:42:33.865Z,1.45
2022-08-01T09:44:07.184Z,2.80
2022-08-01T09:45:44.030Z,0.90
2022-08-01T09:47:23.356Z,5.93
2022-08-01T09:48:59.310Z,1.98
2022-08-01T09:50:42.924Z,1.80
2022-08-01T09:52:17.703Z,2.25
2022-08-01T09:53:53.378Z,1.27
2022-08-01T09:55:28.003Z,1.15
2022-08-01T09:57:16.689Z,2.95
2022-08-01T09:59:00.914Z,1.92
2022-08-01T10:00:45.260Z,0.40
2022-08-01T10:02:30.495Z,1.85
2022-08-01T10:04:09.617Z,1.00
2022-08-01T10:05:50.074Z,1.80
2022-08-01T10:07:27.719Z,0.40
2022-08-01T10:09:17.014Z,0.68
2022-08-01T10:11:09.601Z,1.33
2022-08-01T10:12:46.073Z,0.88
2022-08-01T10:14:25.571Z,0.77
2022-08-01T10:15:59.121Z,1.25
2022-08-01T10:17:50.199Z,1.15
2022-08-01T10:19:25.874Z,6.68
2022-08-01T10:21:08.668Z,2.13
2022-08-01T10:22:46.003Z,1.73
2022-08-01T10:24:21.224Z,1.75
2022-08-01T10:25:57.575Z,2.10
2022-08-01T10:27:39.415Z,1.75
2022-08-01T10:29:24.254Z,0.60
2022-08-01T10:31:13.239Z,1.75
2022-08-01T10:32:50.598Z,2.28
2022-08-01T10:34:25.534Z,2.45
2022-08-01T10:36:03.246Z,2.03
2022-08-01T10:37:52.122Z,2.35
2022-08-01T10:39:28.016Z,2.03
2022-08-01T10:41:06.795Z,0.85
2022-08-01T10:42:43.541Z,0.65
2022-08-01T10:44:18.216Z,2.78
2022-08-01T10:45:53.133Z,1.48
2022-08-01T10:47:50.541Z,1.40
2022-08-01T10:49:28.621Z,1.35
2022-08-01T10:51:17.768Z,1.55
2022-08-01T10:53:16.167Z,0.93
2022-08-01T10:55:04.983Z,0.70
2022-08-01T10:56:45.007Z,3.15
2022-08-01T10:58:24.118Z,0.60
2022-08-01T11:00:03.000Z,2.60
2022-08-01T11:01:37.711Z,1.45
2022-08-01T11:03:13.150Z,1.77
2022-08-01T11:04:56.305Z,1.73
2022-08-01T11:06:41.880Z,0.95
2022-08-01T11:08:24.413Z,3.10
2022-08-01T11:10:05.506Z,1.25
2022-08-01T11:12:06.225Z,3.13
2022-08-01T11:14:13.646Z,3.00
2022-08-01T11:15:50.502Z,2.45
2022-08-01T11:17:38.051Z,3.75
2022-08-01T11:19:17.639Z,1.90
2022-08-01T11:21:58.961Z,2.50
2022-08-01T11:23:18.491Z,1.00
2022-08-01T11:24:59.112Z,3.05
2022-08-01T11:26:34.570Z,1.55
2022-08-01T11:28:29.197Z,4.28
2022-08-01T11:30:27.306Z,1.92
2022-08-01T11:32:25.953Z,1.20
2022-08-01T11:34:03.404Z,1.90
2022-08-01T11:35:40.734Z,1.58
2022-08-01T11:37:30.515Z,1.42
2022-08-01T11:39:15.542Z,2.28
2022-08-01T11:40:48.920Z,0.95
2022-08-01T11:42:23.180Z,3.67
2022-08-01T11:43:59.352Z,0.90
2022-08-01T11:45:51.248Z,1.02
2022-08-01T11:47:45.853Z,2.00
2022-08-01T11:49:37.139Z,3.13
2022-08-01T11:51:23.974Z,1.45
2022-08-01T11:53:00.440Z,0.82
2022-08-01T11:54:36.289Z,2.28
2022-08-01T11:56:10.531Z,1.50
2022-08-01T11:57:44.286Z,3.47
2022-08-01T11:59:23.282Z,0.90
2022-08-01T12:00:59.227Z,0.70
2022-08-01T12:02:35.919Z,0.73
2022-08-01T12:04:09.216Z,3.40
2022-08-01T12:05:46.670Z,1.30
2022-08-01T12:07:22.589Z,1.27
2022-08-01T12:08:55.835Z,0.80
2022-08-01T12:10:33.532Z,0.93
2022-08-01T12:12:06.733Z,2.55
2022-08-01T12:13:46.067Z,3.13
2022-08-01T12:15:20.461Z,1.38
2022-08-01T12:16:54.440Z,0.57
2022-08-01T12:18:28.764Z,1.00
2022-08-01T12:20:01.126Z,3.28
2022-08-01T12:21:34.403Z,2.15
2022-08-01T12:23:11.549Z,1.23
2022-08-01T12:24:45.380Z,1.20
2022-08-01T12:26:29.205Z,1.90
2022-08-01T12:28:07.522Z,0.60
2022-08-01T12:29:44.712Z,1.33
2022-08-01T12:31:17.928Z,2.45
2022-08-01T12:32:51.938Z,2.10
2022-08-01T12:34:28.961Z,2.75
2022-08-01T12:36:03.442Z,2.75
2022-08-01T12:37:38.467Z,1.23
2022-08-01T12:39:13.876Z,0.63
2022-08-01T12:40:52.438Z,0.75
2022-08-01T12:42:27.722Z,4.03
2022-08-01T12:44:01.048Z,1.45
2022-08-01T12:45:36.932Z,3.13
2022-08-01T12:47:12.520Z,2.30
2022-08-01T12:48:46.421Z,0.40
2022-08-01T12:50:22.239Z,6.45
2022-08-01T12:51:57.710Z,3.03
2022-08-01T12:53:41.084Z,2.00
2022-08-01T12:55:19.827Z,2.55
2022-08-01T12:56:54.130Z,3.33
2022-08-01T12:58:33.561Z,2.00
2022-08-01T13:00:16.893Z,1.38
2022-08-01T13:01:50.930Z,1.00
2022-08-01T13:03:24.211Z,1.85
2022-08-01T13:04:57.551Z,3.50
2022-08-01T13:06:31.486Z,4.20
2022-08-01T13:08:12.223Z,4.22
2022-08-01T13:09:52.087Z,2.28
2022-08-01T13:11:29.373Z,0.95
2022-08-01T13:13:02.632Z,1.35
2022-08-01T13:14:36.384Z,0.80
2022-08-01T13:16:30.876Z,1.58
2022-08-01T13:18:29.128Z,0.68
2022-08-01T13:20:02.624Z,2.72
2022-08-01T13:21:54.373Z,7.88
2022-08-01T13:24:03.621Z,0.90
2022-08-01T13:25:23.928Z,2.65
2022-08-01T13:27:02.253Z,2.17
2022-08-01T13:28:37.838Z,1.50
2022-08-01T13:30:15.665Z,4.22
2022-08-01T13:31:49.343Z,1.08
2022-08-01T13:33:21.647Z,1.95
2022-08-01T13:35:03.488Z,2.83
2022-08-01T13:36:37.128Z,6.63
2022-08-01T13:38:11.022Z,4.25
2022-08-01T13:39:45.684Z,2.65
2022-08-01T13:41:18.924Z,2.15
2022-08-01T13:42:53.562Z,1.17
2022-08-01T13:44:27.140Z,8.52
2022-08-01T13:46:00.617Z,2.92
2022-08-01T13:47:34.461Z,3.35
2022-08-01T13:49:16.004Z,3.28
2022-08-01T13:51:07.369Z,1.00
2022-08-01T13:52:43.587Z,3.97
2022-08-01T13:54:16.907Z,1.20
2022-08-01T13:55:50.588Z,3.33
2022-08-01T13:57:24.323Z,0.55
2022-08-01T13:58:59.542Z,2.17
2022-08-01T14:00:33.032Z,0.90
2022-08-01T14:02:07.225Z,0.52
2022-08-01T14:03:41.076Z,2.08
2022-08-01T14:05:14.575Z,2.85
2022-08-01T14:06:47.860Z,1.13
2022-08-01T14:08:21.195Z,1.77
2022-08-01T14:10:18.460Z,1.27
2022-08-01T14:11:48.473Z,4.32
2022-08-01T14:13:23.859Z,1.15
2022-08-01T14:14:58.997Z,2.45
2022-08-01T14:16:32.282Z,1.42
2022-08-01T14:18:06.203Z,0.80
2022-08-01T14:19:42.303Z,4.72
2022-08-01T14:21:20.512Z,4.88
2022-08-01T14:22:53.696Z,6.32
2022-08-01T14:24:28.354Z,3.35
2022-08-01T14:26:07.074Z,3.80
2022-08-01T14:27:45.115Z,7.45
2022-08-01T14:29:18.361Z,3.20
2022-08-01T14:30:53.016Z,4.75
2022-08-01T14:32:28.481Z,3.38
2022-08-01T14:34:02.141Z,1.20
2022-08-01T14:36:01.574Z,3.53
2022-08-01T14:37:31.004Z,1.98
2022-08-01T14:39:07.813Z,1.10
2022-08-01T14:40:52.224Z,3.83
2022-08-01T14:42:25.601Z,1.65
2022-08-01T14:43:58.908Z,1.85
2022-08-01T14:45:32.535Z,3.13
2022-08-01T14:47:21.357Z,2.17
2022-08-01T14:48:55.491Z,1.63
2022-08-01T14:50:29.051Z,1.90
2022-08-01T14:52:02.550Z,0.40
2022-08-01T14:53:37.465Z,0.35
2022-08-01T14:55:12.118Z,4.40
2022-08-01T14:56:45.339Z,2.42
2022-08-01T14:58:22.302Z,0.98
2022-08-01T14:59:55.927Z,1.45
2022-08-01T15:01:29.330Z,0.60
2022-08-01T15:03:04.081Z,0.43
2022-08-01T15:04:37.637Z,4.57
2022-08-01T15:06:12.641Z,4.65
2022-08-01T15:07:52.458Z,2.25
2022-08-01T15:09:26.978Z,2.95
2022-08-01T15:11:02.424Z,2.50
2022-08-01T15:12:49.875Z,1.58
2022-08-01T15:14:41.210Z,1.85
2022-08-01T15:16:14.929Z,3.00
2022-08-01T15:17:48.219Z,1.42
2022-08-01T15:19:22.976Z,2.42
2022-08-01T15:20:56.289Z,2.45
2022-08-01T15:22:31.165Z,2.95
2022-08-01T15:24:04.623Z,0.75
2022-08-01T15:25:41.210Z,3.03
2022-08-01T15:27:15.275Z,1.10
2022-08-01T15:28:49.198Z,1.05
2022-08-01T15:30:23.693Z,3.50
2022-08-01T15:32:00.776Z,1.17
2022-08-01T15:33:34.121Z,2.40
2022-08-01T15:35:11.422Z,0.80
2022-08-01T15:36:45.383Z,0.70
2022-08-01T15:38:22.707Z,1.35
2022-08-01T15:39:56.568Z,2.97
2022-08-01T15:41:30.261Z,0.75
2022-08-01T15:43:03.762Z,0.47
2022-08-01T15:44:36.292Z,3.40
2022-08-01T15:46:09.625Z,3.17
2022-08-01T15:47:43.166Z,4.00
2022-08-01T15:49:16.759Z,3.80
2022-08-01T15:50:51.804Z,1.10
2022-08-01T15:52:31.797Z,1.13
2022-08-01T15:54:09.261Z,3.80
2022-08-01T15:55:52.158Z,1.15
2022-08-01T15:57:26.018Z,3.22
2022-08-01T15:59:00.039Z,6.50
2022-08-01T16:00:38.848Z,3.97
2022-08-01T16:02:14.159Z,3.78
2022-08-01T16:03:47.444Z,3.83
2022-08-01T16:05:20.786Z,3.72
2022-08-01T16:06:55.939Z,1.52
2022-08-01T16:08:29.231Z,4.00
2022-08-01T16:10:02.418Z,1.45
2022-08-01T16:11:40.928Z,4.60
2022-08-01T16:13:17.723Z,3.42
2022-08-01T16:14:51.076Z,5.00
2022-08-01T16:16:24.958Z,3.30
2022-08-01T16:17:58.534Z,2.38
2022-08-01T16:19:35.801Z,2.15
2022-08-01T16:21:11.675Z,0.93
2022-08-01T16:22:47.000Z,4.68
2022-08-01T16:24:20.410Z,3.22
2022-08-01T16:25:54.798Z,5.55
2022-08-01T16:27:30.998Z,1.92
2022-08-01T16:29:04.637Z,1.90
2022-08-01T16:30:38.033Z,0.75
2022-08-01T16:32:27.409Z,1.80
2022-08-01T16:34:11.360Z,2.30
2022-08-01T16:35:47.146Z,2.58
2022-08-01T16:37:23.586Z,1.35
2022-08-01T16:38:58.299Z,1.10
2022-08-01T16:40:31.716Z,4.65
2022-08-01T16:42:20.042Z,0.60
2022-08-01T16:43:54.708Z,4.13
2022-08-01T16:45:28.146Z,1.38
2022-08-01T16:47:01.749Z,0.82
2022-08-01T16:48:35.095Z,2.38
2022-08-01T16:50:09.777Z,1.00
2022-08-01T16:51:48.159Z,4.15
2022-08-01T16:53:22.899Z,1.60
2022-08-01T16:54:58.256Z,6.32
2022-08-01T16:56:31.600Z,8.77
2022-08-01T16:58:05.242Z,2.05
2022-08-01T16:59:40.940Z,4.13
2022-08-01T17:01:58.864Z,6.78
2022-08-01T17:03:17.795Z,5.45
2022-08-01T17:05:07.124Z,4.38
2022-08-01T17:06:44.032Z,5.88
2022-08-01T17:08:17.439Z,11.48
2022-08-01T17:09:50.692Z,7.70
2022-08-01T17:11:25.593Z,8.73
2022-08-01T17:12:58.807Z,11.88
2022-08-01T17:14:34.008Z,14.48
2022-08-01T17:16:08.823Z,17.08
2022-08-01T17:17:42.148Z,18.10
2022-08-01T17:19:15.466Z,12.20
2022-08-01T17:20:50.307Z,6.50
2022-08-01T17:22:23.592Z,1.52
2022-08-01T17:23:56.966Z,10.68
2022-08-01T17:25:30.190Z,8.25
2022-08-01T17:27:09.425Z,8.60
2022-08-01T17:28:45.663Z,13.75
2022-08-01T17:30:19.329Z,9.80
2022-08-01T17:31:52.586Z,12.75
2022-08-01T17:33:44.627Z,13.60
2022-08-01T17:35:19.965Z,13.43
2022-08-01T17:36:53.359Z,9.18
2022-08-01T17:38:26.826Z,10.68
2022-08-01T17:40:03.380Z,8.05
2022-08-01T17:41:39.932Z,12.55
2022-08-01T17:43:14.526Z,14.75
2022-08-01T17:44:49.033Z,13.70
2022-08-01T17:46:22.688Z,16.08
2022-08-01T17:47:55.878Z,7.25
2022-08-01T17:49:53.312Z,7.22
2022-08-01T17:51:23.078Z,16.98
2022-08-01T17:52:56.542Z,16.17
2022-08-01T17:54:30.504Z,5.25
2022-08-01T17:56:05.933Z,2.83
2022-08-01T17:57:39.451Z,9.93
2022-08-01T17:59:14.254Z,8.73
2022-08-01T18:00:47.652Z,10.35
2022-08-01T18:02:21.017Z,11.07
2022-08-01T18:03:54.598Z,11.18
2022-08-01T18:05:36.096Z,5.57
2022-08-01T18:07:10.714Z,5.22
2022-08-01T18:08:45.696Z,9.97
2022-08-01T18:10:20.304Z,7.60
2022-08-01T18:11:54.064Z,4.32
2022-08-01T18:13:27.320Z,1.85
2022-08-01T18:15:06.160Z,2.95
2022-08-01T18:16:40.459Z,4.20
2022-08-01T18:18:14.223Z,2.95
2022-08-01T18:19:47.435Z,2.67
2022-08-01T18:21:20.911Z,1.98
2022-08-01T18:22:54.222Z,3.67
2022-08-01T18:24:27.897Z,5.50
2022-08-01T18:26:02.512Z,13.60
2022-08-01T18:28:29.500Z,10.68
2022-08-01T18:29:47.845Z,10.80
2022-08-01T18:31:24.547Z,15.30
2022-08-01T18:32:58.057Z,6.20
2022-08-01T18:34:31.657Z,7.75
2022-08-01T18:36:06.077Z,7.78
2022-08-01T18:37:45.685Z,10.27
2022-08-01T18:39:28.030Z,7.43
2022-08-01T18:41:05.605Z,9.80
2022-08-01T18:42:38.826Z,3.85
2022-08-01T18:44:12.604Z,4.03
2022-08-01T18:45:46.049Z,8.82
2022-08-01T18:47:20.638Z,7.35
2022-08-01T18:48:54.019Z,7.57
2022-08-01T18:50:27.799Z,6.43
2022-08-01T18:52:01.211Z,4.20
2022-08-01T18:53:35.418Z,3.58
2022-08-01T18:55:09.335Z,5.10
2022-08-01T18:56:43.312Z,9.63
2022-08-01T18:58:16.615Z,6.05
2022-08-01T18:59:50.487Z,6.57
2022-08-01T19:01:24.101Z,3.72
2022-08-01T19:02:59.147Z,4.80
2022-08-01T19:04:32.783Z,5.20
2022-08-01T19:06:06.653Z,3.78
2022-08-01T19:08:05.028Z,2.13
2022-08-01T19:09:33.225Z,3.28
2022-08-01T19:11:05.605Z,1.25
2022-08-01T19:12:39.036Z,2.55
2022-08-01T19:14:12.262Z,2.65
2022-08-01T19:15:46.123Z,3.63
2022-08-01T19:17:19.979Z,2.25
2022-08-01T19:18:57.121Z,1.17
2022-08-01T19:20:31.774Z,2.25
2022-08-01T19:22:05.173Z,1.02
2022-08-01T19:24:04.740Z,1.20
2022-08-01T19:25:55.035Z,1.67
2022-08-01T19:27:32.966Z,1.45
2022-08-01T19:29:11.177Z,1.35
2022-08-01T19:30:44.685Z,1.52
2022-08-01T19:32:28.307Z,5.50
2022-08-01T19:34:06.078Z,1.30
2022-08-01T19:35:39.979Z,1.05
2022-08-01T19:37:13.880Z,1.83
2022-08-01T19:38:48.080Z,1.13
2022-08-01T19:40:26.761Z,0.90
2022-08-01T19:42:01.411Z,2.92
2022-08-01T19:43:41.448Z,0.93
2022-08-01T19:45:17.118Z,0.77
2022-08-01T19:46:51.204Z,3.03
2022-08-01T19:48:25.274Z,1.08
2022-08-01T19:49:59.888Z,2.67
2022-08-01T19:51:34.144Z,1.08
2022-08-01T19:53:09.123Z,1.10
2022-08-01T19:54:45.138Z,1.45
2022-08-01T19:56:21.292Z,2.55
2022-08-01T19:58:17.236Z,2.35
2022-08-01T19:59:48.976Z,5.70
2022-08-01T20:01:23.469Z,2.78
2022-08-01T20:02:58.015Z,1.58
2022-08-01T20:04:31.398Z,0.98
2022-08-01T20:06:07.272Z,1.73
2022-08-01T20:07:41.454Z,2.05
2022-08-01T20:09:15.182Z,2.05
2022-08-01T20:10:49.038Z,2.83
2022-08-01T20:12:23.904Z,2.75
2022-08-01T20:13:58.802Z,3.75
2022-08-01T20:15:31.217Z,1.58
2022-08-01T20:17:05.690Z,1.38
2022-08-01T20:18:41.627Z,1.25
2022-08-01T20:20:14.856Z,1.50
2022-08-01T20:22:02.588Z,4.65
2022-08-01T20:23:41.537Z,1.40
2022-08-01T20:25:15.601Z,1.77
2022-08-01T20:26:51.167Z,1.48
2022-08-01T20:28:27.971Z,1.77
2022-08-01T20:30:02.016Z,2.30
2022-08-01T20:31:44.094Z,1.33
2022-08-01T20:33:18.525Z,0.90
2022-08-01T20:34:53.447Z,1.20
2022-08-01T20:36:27.388Z,1.60
2022-08-01T20:38:07.048Z,1.63
2022-08-01T20:39:44.888Z,1.95
2022-08-01T20:41:20.475Z,1.42
2022-08-01T20:42:54.463Z,1.92
2022-08-01T20:44:32.552Z,1.65
2022-08-01T20:46:06.832Z,1.33
2022-08-01T20:47:40.774Z,2.65
2022-08-01T20:49:15.459Z,1.45
2022-08-01T20:51:07.865Z,1.67
2022-08-01T20:52:47.493Z,2.92
2022-08-01T20:54:22.161Z,3.63
2022-08-01T20:56:04.615Z,1.50
2022-08-01T20:57:39.401Z,1.02
2022-08-01T20:59:56.162Z,1.33
2022-08-01T21:01:16.609Z,1.27
2022-08-01T21:02:57.445Z,1.38
2022-08-01T21:04:49.676Z,2.45
2022-08-01T21:06:31.341Z,1.52
2022-08-01T21:08:09.006Z,2.10
2022-08-01T21:09:45.027Z,0.95
2022-08-01T21:11:22.169Z,1.35
2022-08-01T21:13:02.626Z,6.38
2022-08-01T21:14:52.557Z,1.02
2022-08-01T21:16:32.574Z,1.15
2022-08-01T21:18:11.371Z,1.10
2022-08-01T21:19:47.292Z,2.08
2022-08-01T21:21:25.427Z,2.42
2022-08-01T21:23:21.493Z,2.00
2022-08-01T21:25:02.040Z,2.03
2022-08-01T21:26:37.270Z,3.97
2022-08-01T21:28:15.493Z,3.22